Simcha — PE7688 — position and weather

sailwx.info

Track history (hours):
 
Tides and Currents Weather Stations Pressure Air Temp Water Temp Dewpoint Dewpoint Depression Visibility Wind Speed Wind Dir Waves Ship Positions

Simcha

Last reported at 2014-Sep-13 21:33 UTC. Time now 2014-Sep-18 09:41 UTC.
Position N 51°50' E 005°24'.

Length 110 m.

Type: Ship. MMSI: 244780014.

Date/timePositionNaut miles runAvg speedWind from/ knotsBaromVisibWave heightAir tempDewpointWater temp
2014-Sep-13 21:33N 51°50' E 005°24'4 3.7
2014-Sep-13 20:33N 51°49' E 005°18'6 5.6
2014-Sep-13 19:33N 51°49' E 005°09'6 6.1
2014-Sep-13 18:33N 51°49' E 004°59'6 5.6
2014-Sep-13 17:33N 51°49' E 004°50'6 6.1
2014-Sep-13 16:33N 51°51' E 004°40'7 6.4
2014-Sep-13 15:23N 51°55' E 004°30'3 3.1
2014-Sep-13 14:33N 51°54' E 004°27'0 0.0
2014-Sep-13 13:33N 51°54' E 004°27'0 0.0
2014-Sep-13 12:33N 51°54' E 004°27'0 0.0
2014-Sep-13 11:33N 51°54' E 004°27'7 1.8
2014-Sep-13 07:33N 51°55' E 004°15'7 6.2
2014-Sep-13 06:29N 51°58' E 004°06'3 3.3
2014-Sep-13 05:29N 51°56' E 004°02'0 0.0
2014-Sep-13 01:15N 51°56' E 004°02'0 0.0
2014-Sep-12 21:29N 51°56' E 004°02'0 0.0
2014-Sep-12 16:29N 51°56' E 004°02'0 0.0
2014-Sep-12 09:25N 51°56' E 004°02'0 0.0
2014-Sep-12 08:30N 51°56' E 004°02'0 0.0
2014-Sep-12 04:11N 51°56' E 004°02'0 0.0
2014-Sep-11 22:12N 51°56' E 004°02'0 0.0
2014-Sep-11 21:32N 51°56' E 004°02'0 0.0
2014-Sep-11 20:31N 51°56' E 004°02'0 0.0
2014-Sep-11 18:33N 51°56' E 004°02'0 0.0
2014-Sep-11 16:33N 51°56' E 004°02'0 0.0
2014-Sep-11 15:29N 51°56' E 004°02'0 0.0
2014-Sep-11 12:19N 51°56' E 004°02'0 0.0
2014-Sep-11 11:33N 51°56' E 004°02'0 0.0
2014-Sep-11 10:30N 51°56' E 004°02'3 0.9
2014-Sep-11 07:20N 51°59' E 004°02'2 2.9
2014-Sep-11 06:33N 51°57' E 004°04'0 0.0
2014-Sep-11 05:32N 51°57' E 004°04'3 3.2
2014-Sep-11 04:31N 51°57' E 004°10'7 6.8
2014-Sep-11 03:28N 51°54' E 004°20'5 0.5
2014-Sep-10 18:18N 51°54' E 004°27'6 6.9
2014-Sep-10 17:29N 51°54' E 004°36'6 6.0
2014-Sep-10 16:34N 51°49' E 004°42'7 6.9
2014-Sep-10 15:33N 51°49' E 004°54'8 8.1
2014-Sep-10 14:33N 51°49' E 005°07'8 8.4
2014-Sep-10 13:33N 51°49' E 005°20'39 2.4
2014-Sep-09 21:07N 52°10' E 006°14'2 3.1
2014-Sep-09 20:32N 52°10' E 006°17'6 5.5
2014-Sep-09 19:32N 52°10' E 006°26'5 5.3
2014-Sep-09 18:33N 52°13' E 006°33'5 4.0
2014-Sep-09 17:13N 52°15' E 006°41'3 4.2
2014-Sep-09 16:33N 52°15' E 006°46'1 1.0
2014-Sep-09 15:33N 52°15' E 006°47'0 0.0
2014-Sep-09 14:33N 52°15' E 006°47'0 0.0
2014-Sep-09 13:33N 52°15' E 006°47'0 0.0
2014-Sep-09 12:33N 52°15' E 006°47'0 0.0
2014-Sep-09 11:33N 52°15' E 006°47'0 0.0
2014-Sep-09 10:33N 52°15' E 006°47'0 0.0
2014-Sep-09 09:33N 52°15' E 006°47'0 0.0
2014-Sep-09 08:33N 52°15' E 006°47'0 0.0
2014-Sep-09 07:33N 52°15' E 006°47'0 0.0
2014-Sep-09 06:33N 52°15' E 006°47'0 0.0
2014-Sep-09 05:33N 52°15' E 006°47'0 0.0
2014-Sep-09 04:33N 52°15' E 006°47'0 0.0
2014-Sep-09 03:33N 52°15' E 006°47'0 0.0
2014-Sep-09 02:33N 52°15' E 006°47'0 0.2
2014-Sep-09 01:33N 52°15' E 006°47'0 0.0
2014-Sep-09 00:33N 52°15' E 006°47'0 0.0
2014-Sep-08 23:33N 52°15' E 006°47'0 0.0
2014-Sep-08 22:33N 52°15' E 006°47'4 2.0
2014-Sep-08 20:32N 52°15' E 006°40'5 4.6
2014-Sep-08 19:33N 52°13' E 006°33'6 5.8
2014-Sep-08 18:32N 52°10' E 006°25'36 3.6
2014-Sep-08 08:32N 51°54' E 005°33'5 5.1
2014-Sep-08 07:33N 51°52' E 005°26'5 5.0
2014-Sep-08 06:33N 51°48' E 005°21'5 4.6
2014-Sep-08 05:33N 51°49' E 005°14'5 5.1
2014-Sep-08 04:33N 51°50' E 005°06'6 5.7
2014-Sep-08 03:33N 51°50' E 004°56'2 1.6
2014-Sep-08 02:33N 51°49' E 004°54'0 0.0
2014-Sep-08 01:33N 51°49' E 004°54'0 0.0
2014-Sep-08 00:33N 51°49' E 004°54'0 0.0
2014-Sep-07 23:32N 51°49' E 004°54'0 0.0
2014-Sep-07 22:30N 51°49' E 004°54'0 0.0
2014-Sep-07 21:23N 51°49' E 004°54'0 0.0
2014-Sep-07 20:31N 51°49' E 004°54'5 4.8
2014-Sep-07 19:33N 51°49' E 004°46'5 5.1
2014-Sep-07 18:34N 51°51' E 004°39'6 5.2
2014-Sep-07 17:24N 51°55' E 004°31'4 1.3
2014-Sep-07 14:28N 51°53' E 004°25'8 3.6
2014-Sep-07 12:19N 51°55' E 004°14'6 6.2
2014-Sep-07 11:24N 51°57' E 004°05'1 1.4
2014-Sep-07 10:26N 51°57' E 004°03'0 0.0
2014-Sep-07 09:20N 51°57' E 004°03'1 0.8
2014-Sep-07 08:27N 51°56' E 004°02'0 0.0
2014-Sep-07 07:21N 51°56' E 004°02'0 0.0
2014-Sep-07 05:15N 51°56' E 004°02'0 0.0
2014-Sep-07 04:32N 51°56' E 004°02'0 0.0
2014-Sep-07 03:33N 51°56' E 004°02'0 0.0
2014-Sep-07 01:27N 51°56' E 004°02'0 0.0
2014-Sep-07 00:28N 51°56' E 004°02'0 0.0
2014-Sep-06 23:33N 51°56' E 004°02'0 0.0
2014-Sep-06 22:27N 51°56' E 004°02'0 0.0
2014-Sep-06 20:32N 51°56' E 004°02'2 2.2
2014-Sep-06 19:28N 51°56' E 004°06'7 7.8
2014-Sep-06 18:34N 51°52' E 004°15'8 8.1
2014-Sep-06 17:33N 51°50' E 004°28'7 7.1
2014-Sep-06 16:34N 51°49' E 004°39'  
Track history (hours):
 
Tides and Currents Weather Stations Pressure Air Temp Water Temp Dewpoint Dewpoint Depression Visibility Wind Speed Wind Dir Waves Ship Positions

Simcha

Last reported at 2014-Sep-13 21:33 UTC. Time now 2014-Sep-18 09:41 UTC.
Position N 51°50' E 005°24'.

Length 110 m.

Type: Ship. MMSI: 244780014.

Date/timePositionNaut miles runAvg speedWind from/ knotsBaromVisibWave heightAir tempDewpointWater temp
2014-Sep-13 21:33N 51°50' E 005°24'4 3.7
2014-Sep-13 20:33N 51°49' E 005°18'6 5.6
2014-Sep-13 19:33N 51°49' E 005°09'6 6.1
2014-Sep-13 18:33N 51°49' E 004°59'6 5.6
2014-Sep-13 17:33N 51°49' E 004°50'6 6.1
2014-Sep-13 16:33N 51°51' E 004°40'7 6.4
2014-Sep-13 15:23N 51°55' E 004°30'3 3.1
2014-Sep-13 14:33N 51°54' E 004°27'0 0.0
2014-Sep-13 13:33N 51°54' E 004°27'0 0.0
2014-Sep-13 12:33N 51°54' E 004°27'0 0.0
2014-Sep-13 11:33N 51°54' E 004°27'7 1.8
2014-Sep-13 07:33N 51°55' E 004°15'7 6.2
2014-Sep-13 06:29N 51°58' E 004°06'3 3.3
2014-Sep-13 05:29N 51°56' E 004°02'0 0.0
2014-Sep-13 01:15N 51°56' E 004°02'0 0.0
2014-Sep-12 21:29N 51°56' E 004°02'0 0.0
2014-Sep-12 16:29N 51°56' E 004°02'0 0.0
2014-Sep-12 09:25N 51°56' E 004°02'0 0.0
2014-Sep-12 08:30N 51°56' E 004°02'0 0.0
2014-Sep-12 04:11N 51°56' E 004°02'0 0.0
2014-Sep-11 22:12N 51°56' E 004°02'0 0.0
2014-Sep-11 21:32N 51°56' E 004°02'0 0.0
2014-Sep-11 20:31N 51°56' E 004°02'0 0.0
2014-Sep-11 18:33N 51°56' E 004°02'0 0.0
2014-Sep-11 16:33N 51°56' E 004°02'0 0.0
2014-Sep-11 15:29N 51°56' E 004°02'0 0.0
2014-Sep-11 12:19N 51°56' E 004°02'0 0.0
2014-Sep-11 11:33N 51°56' E 004°02'0 0.0
2014-Sep-11 10:30N 51°56' E 004°02'3 0.9
2014-Sep-11 07:20N 51°59' E 004°02'2 2.9
2014-Sep-11 06:33N 51°57' E 004°04'0 0.0
2014-Sep-11 05:32N 51°57' E 004°04'3 3.2
2014-Sep-11 04:31N 51°57' E 004°10'7 6.8
2014-Sep-11 03:28N 51°54' E 004°20'5 0.5
2014-Sep-10 18:18N 51°54' E 004°27'6 6.9
2014-Sep-10 17:29N 51°54' E 004°36'6 6.0
2014-Sep-10 16:34N 51°49' E 004°42'7 6.9
2014-Sep-10 15:33N 51°49' E 004°54'8 8.1
2014-Sep-10 14:33N 51°49' E 005°07'8 8.4
2014-Sep-10 13:33N 51°49' E 005°20'39 2.4
2014-Sep-09 21:07N 52°10' E 006°14'2 3.1
2014-Sep-09 20:32N 52°10' E 006°17'6 5.5
2014-Sep-09 19:32N 52°10' E 006°26'5 5.3
2014-Sep-09 18:33N 52°13' E 006°33'5 4.0
2014-Sep-09 17:13N 52°15' E 006°41'3 4.2
2014-Sep-09 16:33N 52°15' E 006°46'1 1.0
2014-Sep-09 15:33N 52°15' E 006°47'0 0.0
2014-Sep-09 14:33N 52°15' E 006°47'0 0.0
2014-Sep-09 13:33N 52°15' E 006°47'0 0.0
2014-Sep-09 12:33N 52°15' E 006°47'0 0.0
2014-Sep-09 11:33N 52°15' E 006°47'0 0.0
2014-Sep-09 10:33N 52°15' E 006°47'0 0.0
2014-Sep-09 09:33N 52°15' E 006°47'0 0.0
2014-Sep-09 08:33N 52°15' E 006°47'0 0.0
2014-Sep-09 07:33N 52°15' E 006°47'0 0.0
2014-Sep-09 06:33N 52°15' E 006°47'0 0.0
2014-Sep-09 05:33N 52°15' E 006°47'0 0.0
2014-Sep-09 04:33N 52°15' E 006°47'0 0.0
2014-Sep-09 03:33N 52°15' E 006°47'0 0.0
2014-Sep-09 02:33N 52°15' E 006°47'0 0.2
2014-Sep-09 01:33N 52°15' E 006°47'0 0.0
2014-Sep-09 00:33N 52°15' E 006°47'0 0.0
2014-Sep-08 23:33N 52°15' E 006°47'0 0.0
2014-Sep-08 22:33N 52°15' E 006°47'4 2.0
2014-Sep-08 20:32N 52°15' E 006°40'5 4.6
2014-Sep-08 19:33N 52°13' E 006°33'6 5.8
2014-Sep-08 18:32N 52°10' E 006°25'36 3.6
2014-Sep-08 08:32N 51°54' E 005°33'5 5.1
2014-Sep-08 07:33N 51°52' E 005°26'5 5.0
2014-Sep-08 06:33N 51°48' E 005°21'5 4.6
2014-Sep-08 05:33N 51°49' E 005°14'5 5.1
2014-Sep-08 04:33N 51°50' E 005°06'6 5.7
2014-Sep-08 03:33N 51°50' E 004°56'2 1.6
2014-Sep-08 02:33N 51°49' E 004°54'0 0.0
2014-Sep-08 01:33N 51°49' E 004°54'0 0.0
2014-Sep-08 00:33N 51°49' E 004°54'0 0.0
2014-Sep-07 23:32N 51°49' E 004°54'0 0.0
2014-Sep-07 22:30N 51°49' E 004°54'0 0.0
2014-Sep-07 21:23N 51°49' E 004°54'0 0.0
2014-Sep-07 20:31N 51°49' E 004°54'5 4.8
2014-Sep-07 19:33N 51°49' E 004°46'5 5.1
2014-Sep-07 18:34N 51°51' E 004°39'6 5.2
2014-Sep-07 17:24N 51°55' E 004°31'4 1.3
2014-Sep-07 14:28N 51°53' E 004°25'8 3.6
2014-Sep-07 12:19N 51°55' E 004°14'6 6.2
2014-Sep-07 11:24N 51°57' E 004°05'1 1.4
2014-Sep-07 10:26N 51°57' E 004°03'0 0.0
2014-Sep-07 09:20N 51°57' E 004°03'1 0.8
2014-Sep-07 08:27N 51°56' E 004°02'0 0.0
2014-Sep-07 07:21N 51°56' E 004°02'0 0.0
2014-Sep-07 05:15N 51°56' E 004°02'0 0.0
2014-Sep-07 04:32N 51°56' E 004°02'0 0.0
2014-Sep-07 03:33N 51°56' E 004°02'0 0.0
2014-Sep-07 01:27N 51°56' E 004°02'0 0.0
2014-Sep-07 00:28N 51°56' E 004°02'0 0.0
2014-Sep-06 23:33N 51°56' E 004°02'0 0.0
2014-Sep-06 22:27N 51°56' E 004°02'0 0.0
2014-Sep-06 20:32N 51°56' E 004°02'2 2.2
2014-Sep-06 19:28N 51°56' E 004°06'7 7.8
2014-Sep-06 18:34N 51°52' E 004°15'8 8.1
2014-Sep-06 17:33N 51°50' E 004°28'7 7.1
2014-Sep-06 16:34N 51°49' E 004°39'  

Dump ship's entire track history